Time;durP1;ratioP1;P1;durP2;ratioP2;P2;SDS_P1;SDS_P2;PMS_P1;PMS_P2;Temp;Humidity;BMP_temperature;BMP_pressure;BME280_temperature;BME280_humidity;BME280_pressure;Samples;Min_cycle;Max_cycle;Signal;HPM_P1;HPM_P2
2023/06/23 00:00:43;;;;;;;18.90;5.65;;;;;19.80;96288.00;;;;8289552;28;20285;-68
2023/06/23 00:04:47;;;;;;;14.07;5.40;;;;;19.80;96281.00;;;;8289219;28;20249;-68
2023/06/23 00:08:54;;;;;;;18.98;5.10;;;;;19.70;96295.00;;;;8296161;28;20209;-69
2023/06/23 00:13:00;;;;;;;11.75;4.75;;;;;19.70;96296.00;;;;8294646;28;20781;-69
2023/06/23 00:17:05;;;;;;;13.23;4.80;;;;;19.60;96291.00;;;;8285329;28;20300;-68
2023/06/23 00:21:10;;;;;;;11.77;4.53;;;;;19.60;96297.00;;;;8298793;28;20547;-70
2023/06/23 00:25:18;;;;;;;16.52;4.88;;;;;19.60;96293.00;;;;8289099;28;20202;-68
2023/06/23 00:29:21;;;;;;;12.00;4.75;;;;;19.60;96298.00;;;;8286724;28;20826;-69
2023/06/23 00:33:27;;;;;;;11.35;4.72;;;;;19.60;96291.00;;;;8276657;28;20304;-69
2023/06/23 00:37:37;;;;;;;14.13;5.70;;;;;19.60;96297.00;;;;8289702;28;20571;-69
2023/06/23 00:41:42;;;;;;;12.45;5.85;;;;;19.70;96302.00;;;;8298689;28;20271;-69
2023/06/23 00:45:49;;;;;;;22.00;5.93;;;;;19.70;96307.00;;;;8289010;28;20684;-70
2023/06/23 00:49:53;;;;;;;13.85;6.40;;;;;19.80;96310.00;;;;8307022;28;20703;-69
2023/06/23 00:53:58;;;;;;;15.95;6.70;;;;;19.80;96309.00;;;;8293682;28;20312;-70
2023/06/23 00:58:03;;;;;;;20.58;7.03;;;;;19.80;96304.00;;;;8289720;28;20633;-71
2023/06/23 01:02:07;;;;;;;17.98;7.35;;;;;19.70;96294.00;;;;8296720;28;20591;-69
2023/06/23 01:06:17;;;;;;;22.95;7.75;;;;;19.70;96290.00;;;;8311120;28;20699;-69
2023/06/23 01:10:30;;;;;;;21.38;7.93;;;;;19.70;96286.00;;;;8310438;28;20229;-69
2023/06/23 01:14:46;;;;;;;20.35;7.45;;;;;19.70;96283.00;;;;8302240;28;20746;-69
2023/06/23 01:18:54;;;;;;;16.80;6.78;;;;;19.70;96286.00;;;;8291803;28;20229;-68
2023/06/23 01:23:14;;;;;;;17.73;6.97;;;;;19.70;96283.00;;;;8302681;28;20336;-70
2023/06/23 01:27:34;;;;;;;15.52;6.93;;;;;19.60;96288.00;;;;8294580;28;20194;-69
2023/06/23 01:31:45;;;;;;;13.55;6.43;;;;;19.60;96288.00;;;;8280934;28;20304;-70
2023/06/23 01:35:53;;;;;;;17.02;5.88;;;;;19.50;96294.00;;;;8293782;28;20198;-69
2023/06/23 01:39:59;;;;;;;16.75;6.35;;;;;19.50;96293.00;;;;8293548;28;21169;-68
2023/06/23 01:44:14;;;;;;;15.88;6.43;;;;;19.50;96309.00;;;;8303674;28;20193;-68
2023/06/23 01:48:20;;;;;;;15.90;5.80;;;;;19.50;96308.00;;;;8293280;28;20220;-69
2023/06/23 01:52:23;;;;;;;14.00;6.38;;;;;19.50;96302.00;;;;8295882;28;20224;-68
2023/06/23 01:56:32;;;;;;;16.00;6.25;;;;;19.50;96316.00;;;;8311237;28;20212;-68
2023/06/23 02:00:41;;;;;;;10.13;5.95;;;;;19.40;96323.00;;;;8292777;28;20631;-69
2023/06/23 02:04:49;;;;;;;12.57;4.97;;;;;19.40;96326.00;;;;8291096;28;20300;-68
2023/06/23 02:08:54;;;;;;;13.25;5.82;;;;;19.40;96327.00;;;;8296372;28;20202;-68
2023/06/23 02:13:03;;;;;;;13.05;5.28;;;;;19.30;96326.00;;;;8292964;28;20213;-69
2023/06/23 02:17:11;;;;;;;12.35;4.95;;;;;19.30;96335.00;;;;8285849;28;20670;-70
2023/06/23 02:21:17;;;;;;;14.77;4.95;;;;;19.20;96337.00;;;;8286536;28;20202;-69
2023/06/23 02:25:21;;;;;;;8.57;4.40;;;;;19.10;96332.00;;;;8287882;28;20208;-69
2023/06/23 02:29:28;;;;;;;9.52;4.85;;;;;19.10;96335.00;;;;8290741;28;20718;-68
2023/06/23 02:33:33;;;;;;;6.82;4.60;;;;;19.00;96339.00;;;;8291538;28;20583;-71
2023/06/23 02:37:41;;;;;;;10.32;5.18;;;;;19.00;96350.00;;;;8286846;28;20661;-70
2023/06/23 02:41:46;;;;;;;11.68;4.38;;;;;18.90;96339.00;;;;8289853;28;20635;-69
2023/06/23 02:45:54;;;;;;;10.50;4.65;;;;;18.90;96345.00;;;;8293649;28;20206;-69
2023/06/23 02:50:03;;;;;;;8.82;4.57;;;;;18.90;96345.00;;;;8305804;28;20290;-70
2023/06/23 02:54:12;;;;;;;15.30;4.63;;;;;18.90;96345.00;;;;8283168;28;20225;-70
2023/06/23 02:58:18;;;;;;;9.70;4.53;;;;;18.80;96350.00;;;;8299726;28;20205;-69
2023/06/23 03:06:38;;;;;;;13.32;4.30;;;;;18.90;96352.00;;;;8203856;28;20692;-70
2023/06/23 03:10:42;;;;;;;11.23;4.63;;;;;19.10;96344.00;;;;8207036;28;20208;-69
2023/06/23 03:14:47;;;;;;;9.13;3.97;;;;;19.10;96343.00;;;;8209417;28;20219;-69
2023/06/23 03:18:59;;;;;;;8.20;4.22;;;;;19.20;96329.00;;;;8206923;28;20633;-69
2023/06/23 03:23:05;;;;;;;7.45;3.78;;;;;19.20;96340.00;;;;8215833;28;20754;-69
2023/06/23 03:27:15;;;;;;;8.50;4.60;;;;;19.10;96337.00;;;;8201870;28;20196;-70
2023/06/23 03:31:22;;;;;;;9.57;4.78;;;;;19.10;96349.00;;;;8209860;28;20773;-69
2023/06/23 03:35:33;;;;;;;7.97;5.28;;;;;19.10;96335.00;;;;8194870;28;20200;-69
2023/06/23 03:39:41;;;;;;;12.55;5.47;;;;;19.20;96335.00;;;;8216373;28;20231;-69
2023/06/23 03:43:55;;;;;;;10.30;5.65;;;;;19.30;96331.00;;;;8212784;28;20283;-69
2023/06/23 03:48:02;;;;;;;9.25;5.30;;;;;19.30;96334.00;;;;8196418;28;20669;-70
2023/06/23 03:52:08;;;;;;;9.00;5.78;;;;;19.40;96330.00;;;;8194925;28;20242;-69
2023/06/23 03:56:13;;;;;;;10.38;4.95;;;;;19.40;96344.00;;;;8213249;28;20641;-71
2023/06/23 04:00:20;;;;;;;13.63;6.03;;;;;19.40;96324.00;;;;8210004;28;20799;-69
2023/06/23 04:04:25;;;;;;;10.27;5.20;;;;;19.30;96321.00;;;;8245348;28;20488;-66
2023/06/23 04:08:31;;;;;;;6.68;4.60;;;;;19.30;96335.00;;;;8246798;28;20198;-69
2023/06/23 04:12:35;;;;;;;10.82;5.20;;;;;19.30;96327.00;;;;8236068;28;20253;-70
2023/06/23 04:16:43;;;;;;;8.27;4.60;;;;;19.30;96336.00;;;;8250157;28;20278;-70
2023/06/23 04:20:50;;;;;;;6.70;4.85;;;;;19.40;96340.00;;;;8233916;28;20203;-70
2023/06/23 04:24:56;;;;;;;6.78;4.50;;;;;19.50;96346.00;;;;8247143;28;20203;-71
2023/06/23 04:29:06;;;;;;;8.15;4.30;;;;;19.50;96341.00;;;;8235411;28;20195;-70
2023/06/23 04:33:17;;;;;;;6.28;4.18;;;;;19.50;96342.00;;;;8220174;28;20238;-72
2023/06/23 04:37:27;;;;;;;6.60;4.03;;;;;19.50;96346.00;;;;8228496;28;20664;-75
2023/06/23 04:41:35;;;;;;;7.82;4.30;;;;;19.50;96330.00;;;;8231028;28;20687;-72
2023/06/23 04:45:42;;;;;;;6.47;4.10;;;;;19.50;96337.00;;;;8243656;28;20303;-72
2023/06/23 04:49:52;;;;;;;4.63;3.90;;;;;19.60;96349.00;;;;8228043;28;20230;-73
2023/06/23 04:54:01;;;;;;;6.68;4.05;;;;;19.60;96343.00;;;;8243075;28;20227;-72
2023/06/23 04:58:14;;;;;;;6.60;4.63;;;;;19.50;96359.00;;;;8223440;28;20205;-75
2023/06/23 05:02:31;;;;;;;5.57;4.35;;;;;19.40;96366.00;;;;8239567;28;20563;-74
2023/06/23 05:06:40;;;;;;;5.32;4.68;;;;;19.30;96373.00;;;;8239335;28;20199;-75
2023/06/23 05:10:46;;;;;;;4.80;3.95;;;;;19.10;96382.00;;;;8238789;28;20286;-76
2023/06/23 05:14:51;;;;;;;9.18;4.28;;;;;19.00;96383.00;;;;8247399;28;20313;-75
2023/06/23 05:18:59;;;;;;;6.68;4.65;;;;;18.80;96401.00;;;;8236452;28;20203;-73
2023/06/23 05:23:05;;;;;;;8.82;5.18;;;;;18.80;96407.00;;;;8244975;28;20242;-73
2023/06/23 05:27:09;;;;;;;8.23;5.45;;;;;18.80;96399.00;;;;8242458;28;20265;-73
2023/06/23 05:31:17;;;;;;;6.35;5.30;;;;;19.00;96411.00;;;;8238590;28;20199;-74
2023/06/23 05:35:24;;;;;;;7.30;6.15;;;;;19.10;96428.00;;;;8234264;28;20223;-73
2023/06/23 05:39:35;;;;;;;8.23;5.97;;;;;19.00;96416.00;;;;8236565;28;20204;-71
2023/06/23 05:43:38;;;;;;;10.18;6.47;;;;;19.00;96421.00;;;;8232885;28;20654;-72
2023/06/23 05:47:48;;;;;;;9.52;6.30;;;;;19.30;96426.00;;;;8234146;28;20667;-74
2023/06/23 05:51:58;;;;;;;7.15;5.75;;;;;19.50;96425.00;;;;8234268;28;20264;-71
2023/06/23 05:56:08;;;;;;;8.82;6.28;;;;;19.70;96432.00;;;;8245447;28;20233;-72
2023/06/23 06:00:16;;;;;;;8.43;6.03;;;;;19.90;96438.00;;;;8235457;28;20643;-71
2023/06/23 06:04:25;;;;;;;8.45;5.72;;;;;20.10;96434.00;;;;8230948;28;20592;-71
2023/06/23 06:08:30;;;;;;;6.68;5.30;;;;;20.40;96447.00;;;;8240476;28;20672;-71
2023/06/23 06:12:38;;;;;;;7.28;5.35;;;;;20.60;96461.00;;;;8235020;28;20262;-72
2023/06/23 06:16:45;;;;;;;7.20;5.22;;;;;20.50;96471.00;;;;8245951;28;20294;-72
2023/06/23 06:20:50;;;;;;;7.95;4.70;;;;;20.50;96478.00;;;;8238609;28;20282;-70
2023/06/23 06:25:00;;;;;;;8.65;4.93;;;;;20.50;96473.00;;;;8227535;28;20200;-71
2023/06/23 06:29:13;;;;;;;6.07;4.85;;;;;20.30;96490.00;;;;8238961;28;20408;-70
2023/06/23 06:33:19;;;;;;;8.10;5.13;;;;;20.20;96491.00;;;;8234452;28;20967;-70
2023/06/23 06:37:26;;;;;;;7.55;4.90;;;;;20.10;96499.00;;;;8243752;28;20230;-71
2023/06/23 06:41:33;;;;;;;10.10;4.90;;;;;20.20;96512.00;;;;8227966;28;20824;-69
2023/06/23 06:45:40;;;;;;;8.52;5.07;;;;;20.30;96504.00;;;;8228165;28;20218;-70
2023/06/23 06:49:46;;;;;;;6.32;4.97;;;;;20.30;96518.00;;;;8224861;28;20592;-71
2023/06/23 06:53:50;;;;;;;6.80;4.95;;;;;20.30;96516.00;;;;8247917;28;20301;-70
2023/06/23 06:57:54;;;;;;;6.53;5.55;;;;;20.20;96524.00;;;;8237617;28;20286;-72
2023/06/23 07:02:00;;;;;;;9.40;5.50;;;;;20.30;96518.00;;;;8235976;28;20225;-73
2023/06/23 07:06:03;;;;;;;6.40;5.45;;;;;20.40;96536.00;;;;8239327;28;20212;-72
2023/06/23 07:10:10;;;;;;;7.90;6.07;;;;;20.30;96547.00;;;;8239806;28;20282;-72
2023/06/23 07:14:13;;;;;;;6.97;5.78;;;;;20.30;96549.00;;;;8246036;28;20317;-72
2023/06/23 07:18:23;;;;;;;8.07;6.10;;;;;20.40;96555.00;;;;8234884;28;20249;-72
2023/06/23 07:22:27;;;;;;;8.75;5.97;;;;;20.50;96563.00;;;;8249348;28;20664;-74
2023/06/23 07:26:30;;;;;;;7.95;5.82;;;;;20.60;96560.00;;;;8233318;28;20298;-73
2023/06/23 07:30:39;;;;;;;9.27;5.75;;;;;20.60;96555.00;;;;8236522;28;20215;-74
2023/06/23 07:34:48;;;;;;;9.82;6.25;;;;;20.80;96560.00;;;;8228417;28;20224;-72
2023/06/23 07:38:51;;;;;;;6.45;5.18;;;;;21.20;96550.00;;;;8235881;28;20710;-71
2023/06/23 07:42:57;;;;;;;9.95;5.93;;;;;21.50;96549.00;;;;8227320;28;20233;-69
2023/06/23 07:47:00;;;;;;;6.60;5.45;;;;;21.50;96556.00;;;;8226660;28;20211;-70
2023/06/23 07:51:08;;;;;;;8.25;6.20;;;;;21.50;96551.00;;;;8242369;28;20553;-70
2023/06/23 07:55:11;;;;;;;11.68;6.82;;;;;21.20;96557.00;;;;8244437;28;20709;-70
2023/06/23 07:59:16;;;;;;;10.57;5.95;;;;;21.00;96558.00;;;;8240273;28;20199;-72
2023/06/23 08:03:27;;;;;;;8.43;6.75;;;;;20.90;96558.00;;;;8248421;28;20245;-72
2023/06/23 08:07:33;;;;;;;10.55;6.22;;;;;20.80;96562.00;;;;8243521;28;20210;-72
2023/06/23 08:11:38;;;;;;;9.98;6.32;;;;;20.80;96562.00;;;;8251078;28;20235;-71
2023/06/23 08:15:46;;;;;;;6.78;5.80;;;;;20.70;96569.00;;;;8248783;28;20233;-69
2023/06/23 08:19:50;;;;;;;8.25;6.25;;;;;20.70;96572.00;;;;8240211;28;20778;-68
2023/06/23 08:23:54;;;;;;;12.90;6.85;;;;;20.50;96573.00;;;;8250796;28;20604;-70
2023/06/23 08:27:57;;;;;;;8.93;7.30;;;;;20.40;96575.00;;;;8229327;28;20231;-70
2023/06/23 08:32:00;;;;;;;10.50;7.63;;;;;20.20;96573.00;;;;8224470;28;20632;-70
2023/06/23 08:36:04;;;;;;;9.60;7.75;;;;;19.90;96583.00;;;;8229897;28;20227;-71
2023/06/23 08:40:10;;;;;;;9.05;7.38;;;;;19.70;96595.00;;;;8230285;28;20648;-70
2023/06/23 08:44:15;;;;;;;10.45;7.32;;;;;19.50;96596.00;;;;8245588;28;20242;-71
2023/06/23 08:48:25;;;;;;;9.35;7.47;;;;;19.50;96602.00;;;;8226385;28;20660;-71
2023/06/23 08:52:33;;;;;;;10.23;7.63;;;;;19.60;96607.00;;;;8232042;28;20218;-67
2023/06/23 08:56:38;;;;;;;9.65;7.07;;;;;19.60;96613.00;;;;8252087;28;20325;-66
